Ingeniero Luis A. Huergo, Argentina
Current Conditions -  °F | °C
As of 8:00 AM on Wednesday 26 Nov 2014 (Local Time) from SAZN Reporting Station
Clear Clear  
Wind Chill: 61°   Ceiling: Unl
Heat Index: 61°   Visibility: 6mi
Dew Point: 37°   Wind: 8mph
Humidity: 42%   Direction: 250°WSW
Pressure: 30"   Gusts: NA
Location:  39.07°S, 67.25°W
Report Text: SAZN 261100Z 25007KT CAVOK 16/03 Q1016
Loading
Personal Weather Stations






























Interactive Weather Map New forecast layout! Learn more

10-Day Weather Forecast

Advertisements
Track Severe Weather on mobile